sensor_id;sensor_type;location;lat;lon;timestamp;P1;durP1;ratioP1;P2;durP2;ratioP2
75408;SDS011;63979;55.644;37.734;2023-12-22T00:03:50;9.85;;;4.90;;
75408;SDS011;63979;55.644;37.734;2023-12-22T00:08:50;8.38;;;4.03;;
75408;SDS011;63979;55.644;37.734;2023-12-22T00:13:51;7.00;;;3.80;;
75408;SDS011;63979;55.644;37.734;2023-12-22T00:18:52;5.07;;;2.90;;
75408;SDS011;63979;55.644;37.734;2023-12-22T00:23:54;7.10;;;2.70;;
75408;SDS011;63979;55.644;37.734;2023-12-22T00:28:54;8.68;;;4.47;;
75408;SDS011;63979;55.644;37.734;2023-12-22T00:33:55;6.15;;;4.07;;
75408;SDS011;63979;55.644;37.734;2023-12-22T00:38:56;6.10;;;3.40;;
75408;SDS011;63979;55.644;37.734;2023-12-22T00:43:57;6.47;;;4.38;;
75408;SDS011;63979;55.644;37.734;2023-12-22T00:48:57;6.90;;;3.67;;
75408;SDS011;63979;55.644;37.734;2023-12-22T00:53:58;8.63;;;5.30;;
75408;SDS011;63979;55.644;37.734;2023-12-22T00:58:59;8.07;;;4.32;;
75408;SDS011;63979;55.644;37.734;2023-12-22T01:04:00;4.93;;;3.35;;
75408;SDS011;63979;55.644;37.734;2023-12-22T01:09:00;4.93;;;3.67;;
75408;SDS011;63979;55.644;37.734;2023-12-22T01:14:02;7.15;;;4.28;;
75408;SDS011;63979;55.644;37.734;2023-12-22T01:19:03;7.53;;;5.20;;
75408;SDS011;63979;55.644;37.734;2023-12-22T01:24:04;5.93;;;3.45;;
75408;SDS011;63979;55.644;37.734;2023-12-22T01:29:05;6.40;;;3.03;;
75408;SDS011;63979;55.644;37.734;2023-12-22T01:34:05;8.45;;;3.83;;
75408;SDS011;63979;55.644;37.734;2023-12-22T01:39:06;7.53;;;3.78;;
75408;SDS011;63979;55.644;37.734;2023-12-22T01:44:07;7.72;;;4.65;;
75408;SDS011;63979;55.644;37.734;2023-12-22T01:49:08;8.80;;;4.20;;
75408;SDS011;63979;55.644;37.734;2023-12-22T01:54:09;8.95;;;4.13;;
75408;SDS011;63979;55.644;37.734;2023-12-22T01:59:14;7.85;;;4.70;;
75408;SDS011;63979;55.644;37.734;2023-12-22T02:04:15;4.93;;;3.28;;
75408;SDS011;63979;55.644;37.734;2023-12-22T02:09:16;5.28;;;3.30;;
75408;SDS011;63979;55.644;37.734;2023-12-22T02:14:17;7.38;;;3.60;;
75408;SDS011;63979;55.644;37.734;2023-12-22T02:24:39;6.80;;;3.50;;
75408;SDS011;63979;55.644;37.734;2023-12-22T02:29:43;8.00;;;3.90;;
75408;SDS011;63979;55.644;37.734;2023-12-22T02:34:50;4.35;;;3.10;;
75408;SDS011;63979;55.644;37.734;2023-12-22T02:39:54;7.90;;;4.13;;
75408;SDS011;63979;55.644;37.734;2023-12-22T02:44:56;7.28;;;5.28;;
75408;SDS011;63979;55.644;37.734;2023-12-22T02:49:58;7.97;;;4.85;;
75408;SDS011;63979;55.644;37.734;2023-12-22T02:54:59;6.85;;;4.13;;
75408;SDS011;63979;55.644;37.734;2023-12-22T03:00:00;7.90;;;4.30;;
75408;SDS011;63979;55.644;37.734;2023-12-22T03:05:01;7.20;;;4.40;;
75408;SDS011;63979;55.644;37.734;2023-12-22T03:15:05;8.70;;;4.60;;
75408;SDS011;63979;55.644;37.734;2023-12-22T03:20:07;10.23;;;4.18;;
75408;SDS011;63979;55.644;37.734;2023-12-22T03:25:08;7.32;;;4.40;;
75408;SDS011;63979;55.644;37.734;2023-12-22T03:30:09;9.32;;;5.13;;
75408;SDS011;63979;55.644;37.734;2023-12-22T03:35:11;7.63;;;5.13;;
75408;SDS011;63979;55.644;37.734;2023-12-22T03:40:12;8.80;;;4.22;;
75408;SDS011;63979;55.644;37.734;2023-12-22T03:45:13;8.23;;;4.53;;
75408;SDS011;63979;55.644;37.734;2023-12-22T03:50:14;7.10;;;4.18;;
75408;SDS011;63979;55.644;37.734;2023-12-22T03:55:15;4.70;;;3.78;;
75408;SDS011;63979;55.644;37.734;2023-12-22T04:00:16;7.72;;;4.80;;
75408;SDS011;63979;55.644;37.734;2023-12-22T04:05:17;9.02;;;5.25;;
75408;SDS011;63979;55.644;37.734;2023-12-22T04:10:18;7.25;;;4.55;;
75408;SDS011;63979;55.644;37.734;2023-12-22T04:15:19;4.93;;;2.97;;
75408;SDS011;63979;55.644;37.734;2023-12-22T04:20:20;9.82;;;5.65;;
75408;SDS011;63979;55.644;37.734;2023-12-22T04:25:21;11.45;;;5.88;;
75408;SDS011;63979;55.644;37.734;2023-12-22T04:30:23;10.02;;;5.32;;
75408;SDS011;63979;55.644;37.734;2023-12-22T04:35:24;8.40;;;5.05;;
75408;SDS011;63979;55.644;37.734;2023-12-22T04:40:25;8.43;;;4.72;;
75408;SDS011;63979;55.644;37.734;2023-12-22T04:45:27;7.43;;;4.93;;
75408;SDS011;63979;55.644;37.734;2023-12-22T04:50:28;10.98;;;5.43;;
75408;SDS011;63979;55.644;37.734;2023-12-22T04:55:29;10.57;;;5.50;;
75408;SDS011;63979;55.644;37.734;2023-12-22T05:00:29;12.57;;;6.40;;
75408;SDS011;63979;55.644;37.734;2023-12-22T05:05:30;9.23;;;4.25;;
75408;SDS011;63979;55.644;37.734;2023-12-22T05:10:31;10.18;;;6.07;;
75408;SDS011;63979;55.644;37.734;2023-12-22T05:15:32;12.80;;;5.43;;
75408;SDS011;63979;55.644;37.734;2023-12-22T05:20:33;10.60;;;5.95;;
75408;SDS011;63979;55.644;37.734;2023-12-22T05:25:34;11.73;;;6.18;;
75408;SDS011;63979;55.644;37.734;2023-12-22T05:30:35;10.52;;;6.25;;
75408;SDS011;63979;55.644;37.734;2023-12-22T05:35:36;11.82;;;7.32;;
75408;SDS011;63979;55.644;37.734;2023-12-22T05:40:37;11.02;;;6.25;;
75408;SDS011;63979;55.644;37.734;2023-12-22T05:45:37;10.68;;;6.68;;
75408;SDS011;63979;55.644;37.734;2023-12-22T05:50:38;15.27;;;8.10;;
75408;SDS011;63979;55.644;37.734;2023-12-22T05:55:39;15.80;;;7.57;;
75408;SDS011;63979;55.644;37.734;2023-12-22T06:00:40;16.23;;;9.48;;
75408;SDS011;63979;55.644;37.734;2023-12-22T06:05:41;12.85;;;7.07;;
75408;SDS011;63979;55.644;37.734;2023-12-22T06:10:42;16.30;;;8.48;;
75408;SDS011;63979;55.644;37.734;2023-12-22T06:15:43;12.48;;;6.80;;
75408;SDS011;63979;55.644;37.734;2023-12-22T06:20:44;19.05;;;7.53;;
75408;SDS011;63979;55.644;37.734;2023-12-22T06:25:44;12.07;;;6.55;;
75408;SDS011;63979;55.644;37.734;2023-12-22T06:30:46;14.05;;;6.93;;
75408;SDS011;63979;55.644;37.734;2023-12-22T06:35:47;11.50;;;6.43;;
75408;SDS011;63979;55.644;37.734;2023-12-22T06:40:49;10.82;;;6.97;;
75408;SDS011;63979;55.644;37.734;2023-12-22T06:45:50;8.85;;;5.72;;
75408;SDS011;63979;55.644;37.734;2023-12-22T06:50:55;9.13;;;5.57;;
75408;SDS011;63979;55.644;37.734;2023-12-22T06:55:56;16.27;;;7.13;;
75408;SDS011;63979;55.644;37.734;2023-12-22T07:00:56;13.23;;;6.55;;
75408;SDS011;63979;55.644;37.734;2023-12-22T07:05:57;9.77;;;6.68;;
75408;SDS011;63979;55.644;37.734;2023-12-22T07:10:58;14.77;;;9.38;;
75408;SDS011;63979;55.644;37.734;2023-12-22T07:15:59;15.27;;;7.07;;
75408;SDS011;63979;55.644;37.734;2023-12-22T07:21:00;9.82;;;6.05;;
75408;SDS011;63979;55.644;37.734;2023-12-22T07:26:01;13.90;;;8.35;;
75408;SDS011;63979;55.644;37.734;2023-12-22T07:31:01;8.32;;;5.18;;
75408;SDS011;63979;55.644;37.734;2023-12-22T07:36:02;8.68;;;4.97;;
75408;SDS011;63979;55.644;37.734;2023-12-22T07:41:03;7.43;;;4.13;;
75408;SDS011;63979;55.644;37.734;2023-12-22T07:46:05;7.80;;;4.07;;
75408;SDS011;63979;55.644;37.734;2023-12-22T07:51:05;7.60;;;4.40;;
75408;SDS011;63979;55.644;37.734;2023-12-22T07:56:07;6.82;;;4.22;;
75408;SDS011;63979;55.644;37.734;2023-12-22T08:01:10;10.90;;;5.30;;
75408;SDS011;63979;55.644;37.734;2023-12-22T08:06:11;5.85;;;4.03;;
75408;SDS011;63979;55.644;37.734;2023-12-22T08:11:14;7.82;;;5.60;;
75408;SDS011;63979;55.644;37.734;2023-12-22T08:16:15;7.20;;;5.10;;
75408;SDS011;63979;55.644;37.734;2023-12-22T08:21:15;5.65;;;4.57;;
75408;SDS011;63979;55.644;37.734;2023-12-22T08:26:17;10.05;;;5.72;;
75408;SDS011;63979;55.644;37.734;2023-12-22T08:31:19;10.85;;;6.15;;
75408;SDS011;63979;55.644;37.734;2023-12-22T08:36:20;11.40;;;6.60;;
75408;SDS011;63979;55.644;37.734;2023-12-22T08:41:22;12.20;;;7.22;;
75408;SDS011;63979;55.644;37.734;2023-12-22T08:46:23;12.60;;;7.28;;
75408;SDS011;63979;55.644;37.734;2023-12-22T08:51:26;11.50;;;7.50;;
75408;SDS011;63979;55.644;37.734;2023-12-22T08:56:28;13.15;;;7.53;;
75408;SDS011;63979;55.644;37.734;2023-12-22T09:01:28;14.18;;;8.15;;
75408;SDS011;63979;55.644;37.734;2023-12-22T09:06:29;13.13;;;7.15;;
75408;SDS011;63979;55.644;37.734;2023-12-22T09:11:30;11.80;;;7.28;;
75408;SDS011;63979;55.644;37.734;2023-12-22T09:16:32;11.07;;;6.88;;
75408;SDS011;63979;55.644;37.734;2023-12-22T09:21:32;9.20;;;7.03;;
75408;SDS011;63979;55.644;37.734;2023-12-22T09:26:33;9.93;;;6.45;;
75408;SDS011;63979;55.644;37.734;2023-12-22T09:31:34;10.05;;;6.22;;
75408;SDS011;63979;55.644;37.734;2023-12-22T09:36:35;9.65;;;6.45;;
75408;SDS011;63979;55.644;37.734;2023-12-22T09:41:35;11.88;;;6.57;;
75408;SDS011;63979;55.644;37.734;2023-12-22T09:46:37;9.80;;;6.47;;
75408;SDS011;63979;55.644;37.734;2023-12-22T09:51:40;8.38;;;6.13;;
75408;SDS011;63979;55.644;37.734;2023-12-22T09:56:42;10.30;;;6.85;;
75408;SDS011;63979;55.644;37.734;2023-12-22T10:01:45;7.60;;;5.78;;
75408;SDS011;63979;55.644;37.734;2023-12-22T10:06:48;7.60;;;5.60;;
75408;SDS011;63979;55.644;37.734;2023-12-22T10:11:51;12.02;;;5.80;;
75408;SDS011;63979;55.644;37.734;2023-12-22T10:16:53;9.15;;;5.78;;
75408;SDS011;63979;55.644;37.734;2023-12-22T10:21:54;6.53;;;4.90;;
75408;SDS011;63979;55.644;37.734;2023-12-22T10:26:55;7.57;;;5.65;;
75408;SDS011;63979;55.644;37.734;2023-12-22T10:31:56;9.40;;;5.97;;
75408;SDS011;63979;55.644;37.734;2023-12-22T10:36:57;8.10;;;5.43;;
75408;SDS011;63979;55.644;37.734;2023-12-22T10:41:59;7.32;;;5.13;;
75408;SDS011;63979;55.644;37.734;2023-12-22T10:47:00;7.68;;;4.93;;
75408;SDS011;63979;55.644;37.734;2023-12-22T10:52:03;7.97;;;4.40;;
75408;SDS011;63979;55.644;37.734;2023-12-22T10:57:04;7.03;;;4.47;;
75408;SDS011;63979;55.644;37.734;2023-12-22T11:02:05;7.90;;;5.28;;
75408;SDS011;63979;55.644;37.734;2023-12-22T11:12:09;7.30;;;3.97;;
75408;SDS011;63979;55.644;37.734;2023-12-22T11:17:12;8.68;;;4.32;;
75408;SDS011;63979;55.644;37.734;2023-12-22T11:22:15;5.25;;;3.58;;
75408;SDS011;63979;55.644;37.734;2023-12-22T11:27:18;10.10;;;5.13;;
75408;SDS011;63979;55.644;37.734;2023-12-22T11:32:20;5.75;;;4.22;;
75408;SDS011;63979;55.644;37.734;2023-12-22T11:37:21;7.88;;;4.55;;
75408;SDS011;63979;55.644;37.734;2023-12-22T11:42:26;8.70;;;5.07;;
75408;SDS011;63979;55.644;37.734;2023-12-22T11:47:32;7.07;;;3.35;;
75408;SDS011;63979;55.644;37.734;2023-12-22T11:52:34;6.57;;;4.13;;
75408;SDS011;63979;55.644;37.734;2023-12-22T11:57:39;8.73;;;4.50;;
75408;SDS011;63979;55.644;37.734;2023-12-22T12:02:41;6.00;;;3.50;;
75408;SDS011;63979;55.644;37.734;2023-12-22T12:07:46;5.95;;;3.90;;
75408;SDS011;63979;55.644;37.734;2023-12-22T12:13:03;5.18;;;3.40;;
75408;SDS011;63979;55.644;37.734;2023-12-22T12:18:05;9.18;;;4.18;;
75408;SDS011;63979;55.644;37.734;2023-12-22T12:23:06;7.05;;;3.38;;
75408;SDS011;63979;55.644;37.734;2023-12-22T12:28:08;7.53;;;4.78;;
75408;SDS011;63979;55.644;37.734;2023-12-22T12:33:10;7.32;;;4.05;;
75408;SDS011;63979;55.644;37.734;2023-12-22T12:38:13;5.65;;;3.25;;
75408;SDS011;63979;55.644;37.734;2023-12-22T12:43:17;7.78;;;4.45;;
75408;SDS011;63979;55.644;37.734;2023-12-22T12:48:19;7.03;;;3.25;;
75408;SDS011;63979;55.644;37.734;2023-12-22T12:58:27;8.40;;;4.63;;
75408;SDS011;63979;55.644;37.734;2023-12-22T13:03:31;5.55;;;3.38;;
75408;SDS011;63979;55.644;37.734;2023-12-22T13:08:31;5.70;;;3.55;;
75408;SDS011;63979;55.644;37.734;2023-12-22T13:13:40;8.10;;;4.10;;
75408;SDS011;63979;55.644;37.734;2023-12-22T13:18:42;7.47;;;3.85;;
75408;SDS011;63979;55.644;37.734;2023-12-22T13:23:43;7.18;;;3.63;;
75408;SDS011;63979;55.644;37.734;2023-12-22T13:28:44;4.13;;;3.20;;
75408;SDS011;63979;55.644;37.734;2023-12-22T13:33:44;7.05;;;4.85;;
75408;SDS011;63979;55.644;37.734;2023-12-22T13:38:46;6.63;;;3.53;;
75408;SDS011;63979;55.644;37.734;2023-12-22T13:43:48;7.20;;;4.40;;
75408;SDS011;63979;55.644;37.734;2023-12-22T13:48:49;5.25;;;3.30;;
75408;SDS011;63979;55.644;37.734;2023-12-22T13:53:54;6.35;;;3.20;;
75408;SDS011;63979;55.644;37.734;2023-12-22T13:58:56;7.97;;;4.43;;
75408;SDS011;63979;55.644;37.734;2023-12-22T14:03:57;9.00;;;4.85;;
75408;SDS011;63979;55.644;37.734;2023-12-22T14:08:58;6.82;;;3.92;;
75408;SDS011;63979;55.644;37.734;2023-12-22T14:13:59;8.02;;;4.05;;
75408;SDS011;63979;55.644;37.734;2023-12-22T14:19:00;10.98;;;5.10;;
75408;SDS011;63979;55.644;37.734;2023-12-22T14:24:00;10.55;;;5.55;;
75408;SDS011;63979;55.644;37.734;2023-12-22T14:29:01;9.98;;;5.53;;
75408;SDS011;63979;55.644;37.734;2023-12-22T14:34:02;9.63;;;5.82;;
75408;SDS011;63979;55.644;37.734;2023-12-22T14:39:03;8.23;;;4.50;;
75408;SDS011;63979;55.644;37.734;2023-12-22T14:44:05;9.23;;;5.65;;
75408;SDS011;63979;55.644;37.734;2023-12-22T14:49:06;8.93;;;4.40;;
75408;SDS011;63979;55.644;37.734;2023-12-22T14:54:07;8.20;;;5.35;;
75408;SDS011;63979;55.644;37.734;2023-12-22T14:59:12;6.75;;;4.18;;
75408;SDS011;63979;55.644;37.734;2023-12-22T15:04:15;11.63;;;6.93;;
75408;SDS011;63979;55.644;37.734;2023-12-22T15:09:15;8.80;;;5.22;;
75408;SDS011;63979;55.644;37.734;2023-12-22T15:14:17;9.57;;;5.22;;
75408;SDS011;63979;55.644;37.734;2023-12-22T15:19:18;11.48;;;5.43;;
75408;SDS011;63979;55.644;37.734;2023-12-22T15:24:19;12.40;;;5.25;;
75408;SDS011;63979;55.644;37.734;2023-12-22T15:29:20;12.75;;;7.30;;
75408;SDS011;63979;55.644;37.734;2023-12-22T15:34:20;9.55;;;5.43;;
75408;SDS011;63979;55.644;37.734;2023-12-22T15:39:21;10.23;;;5.50;;
75408;SDS011;63979;55.644;37.734;2023-12-22T15:44:22;13.25;;;6.18;;
75408;SDS011;63979;55.644;37.734;2023-12-22T15:49:23;10.48;;;4.78;;
75408;SDS011;63979;55.644;37.734;2023-12-22T15:54:24;11.93;;;7.65;;
75408;SDS011;63979;55.644;37.734;2023-12-22T15:59:24;9.38;;;5.72;;
75408;SDS011;63979;55.644;37.734;2023-12-22T16:04:26;11.68;;;6.38;;
75408;SDS011;63979;55.644;37.734;2023-12-22T16:09:27;14.85;;;6.57;;
75408;SDS011;63979;55.644;37.734;2023-12-22T16:14:28;12.10;;;7.30;;
75408;SDS011;63979;55.644;37.734;2023-12-22T16:19:32;15.70;;;8.48;;
75408;SDS011;63979;55.644;37.734;2023-12-22T16:24:33;16.85;;;7.57;;
75408;SDS011;63979;55.644;37.734;2023-12-22T16:29:37;24.70;;;9.90;;
75408;SDS011;63979;55.644;37.734;2023-12-22T16:34:42;18.23;;;8.43;;
75408;SDS011;63979;55.644;37.734;2023-12-22T16:39:51;13.85;;;8.25;;
75408;SDS011;63979;55.644;37.734;2023-12-22T16:44:53;14.35;;;7.82;;
75408;SDS011;63979;55.644;37.734;2023-12-22T16:49:55;13.90;;;6.95;;
75408;SDS011;63979;55.644;37.734;2023-12-22T16:54:56;11.60;;;7.10;;
75408;SDS011;63979;55.644;37.734;2023-12-22T16:59:57;20.38;;;9.93;;
75408;SDS011;63979;55.644;37.734;2023-12-22T17:04:58;20.52;;;9.05;;
75408;SDS011;63979;55.644;37.734;2023-12-22T17:09:59;11.30;;;7.05;;
75408;SDS011;63979;55.644;37.734;2023-12-22T17:15:00;14.50;;;7.90;;
75408;SDS011;63979;55.644;37.734;2023-12-22T17:20:01;18.00;;;6.50;;
75408;SDS011;63979;55.644;37.734;2023-12-22T17:25:04;13.23;;;7.32;;
75408;SDS011;63979;55.644;37.734;2023-12-22T17:30:05;15.20;;;8.32;;
75408;SDS011;63979;55.644;37.734;2023-12-22T17:35:07;18.05;;;7.95;;
75408;SDS011;63979;55.644;37.734;2023-12-22T17:40:08;16.05;;;9.30;;
75408;SDS011;63979;55.644;37.734;2023-12-22T17:45:09;21.55;;;11.60;;
75408;SDS011;63979;55.644;37.734;2023-12-22T17:50:10;16.58;;;9.02;;
75408;SDS011;63979;55.644;37.734;2023-12-22T17:55:11;21.55;;;11.02;;
75408;SDS011;63979;55.644;37.734;2023-12-22T18:00:12;22.75;;;8.77;;
75408;SDS011;63979;55.644;37.734;2023-12-22T18:05:14;18.83;;;9.15;;
75408;SDS011;63979;55.644;37.734;2023-12-22T18:10:14;19.73;;;9.63;;
75408;SDS011;63979;55.644;37.734;2023-12-22T18:15:18;21.17;;;8.85;;
75408;SDS011;63979;55.644;37.734;2023-12-22T18:20:19;29.25;;;13.70;;
75408;SDS011;63979;55.644;37.734;2023-12-22T18:25:22;21.58;;;10.73;;
75408;SDS011;63979;55.644;37.734;2023-12-22T18:30:22;17.65;;;7.95;;
75408;SDS011;63979;55.644;37.734;2023-12-22T18:35:23;23.92;;;9.38;;
75408;SDS011;63979;55.644;37.734;2023-12-22T18:40:24;17.90;;;9.25;;
75408;SDS011;63979;55.644;37.734;2023-12-22T18:45:25;22.58;;;12.20;;
75408;SDS011;63979;55.644;37.734;2023-12-22T18:50:26;17.63;;;8.75;;
75408;SDS011;63979;55.644;37.734;2023-12-22T18:55:27;24.15;;;10.35;;
75408;SDS011;63979;55.644;37.734;2023-12-22T19:00:27;24.50;;;9.25;;
75408;SDS011;63979;55.644;37.734;2023-12-22T19:05:29;24.10;;;10.60;;
75408;SDS011;63979;55.644;37.734;2023-12-22T19:10:29;26.48;;;11.18;;
75408;SDS011;63979;55.644;37.734;2023-12-22T19:15:30;21.67;;;9.77;;
75408;SDS011;63979;55.644;37.734;2023-12-22T19:20:31;18.27;;;8.77;;
75408;SDS011;63979;55.644;37.734;2023-12-22T19:25:32;17.65;;;8.68;;
75408;SDS011;63979;55.644;37.734;2023-12-22T19:30:33;16.60;;;8.25;;
75408;SDS011;63979;55.644;37.734;2023-12-22T19:35:35;22.92;;;10.68;;
75408;SDS011;63979;55.644;37.734;2023-12-22T19:40:35;23.75;;;8.70;;
75408;SDS011;63979;55.644;37.734;2023-12-22T19:45:36;18.90;;;8.27;;
75408;SDS011;63979;55.644;37.734;2023-12-22T19:50:37;21.90;;;9.68;;
75408;SDS011;63979;55.644;37.734;2023-12-22T19:55:38;29.40;;;14.70;;
75408;SDS011;63979;55.644;37.734;2023-12-22T20:00:40;22.08;;;9.98;;
75408;SDS011;63979;55.644;37.734;2023-12-22T20:05:41;23.05;;;9.98;;
75408;SDS011;63979;55.644;37.734;2023-12-22T20:10:43;23.30;;;10.65;;
75408;SDS011;63979;55.644;37.734;2023-12-22T20:15:44;19.90;;;10.70;;
75408;SDS011;63979;55.644;37.734;2023-12-22T20:20:45;14.57;;;7.20;;
75408;SDS011;63979;55.644;37.734;2023-12-22T20:25:47;20.08;;;9.52;;
75408;SDS011;63979;55.644;37.734;2023-12-22T20:30:48;24.02;;;11.75;;
75408;SDS011;63979;55.644;37.734;2023-12-22T20:35:49;17.33;;;8.57;;
75408;SDS011;63979;55.644;37.734;2023-12-22T20:40:50;17.73;;;8.15;;
75408;SDS011;63979;55.644;37.734;2023-12-22T20:45:51;19.42;;;8.38;;
75408;SDS011;63979;55.644;37.734;2023-12-22T20:50:52;19.35;;;8.95;;
75408;SDS011;63979;55.644;37.734;2023-12-22T20:55:53;16.27;;;8.32;;
75408;SDS011;63979;55.644;37.734;2023-12-22T21:00:54;20.08;;;9.50;;
75408;SDS011;63979;55.644;37.734;2023-12-22T21:05:55;21.08;;;9.02;;
75408;SDS011;63979;55.644;37.734;2023-12-22T21:11:00;17.13;;;8.70;;
75408;SDS011;63979;55.644;37.734;2023-12-22T21:16:07;18.08;;;7.95;;
75408;SDS011;63979;55.644;37.734;2023-12-22T21:21:08;13.10;;;8.00;;
75408;SDS011;63979;55.644;37.734;2023-12-22T21:26:18;17.15;;;8.85;;
75408;SDS011;63979;55.644;37.734;2023-12-22T21:31:24;20.65;;;9.35;;
75408;SDS011;63979;55.644;37.734;2023-12-22T21:36:26;15.63;;;7.30;;
75408;SDS011;63979;55.644;37.734;2023-12-22T21:41:28;20.88;;;9.38;;
75408;SDS011;63979;55.644;37.734;2023-12-22T21:46:29;13.85;;;8.35;;
75408;SDS011;63979;55.644;37.734;2023-12-22T21:51:29;16.38;;;9.32;;
75408;SDS011;63979;55.644;37.734;2023-12-22T21:56:30;17.10;;;8.25;;
75408;SDS011;63979;55.644;37.734;2023-12-22T22:01:31;18.63;;;8.40;;
75408;SDS011;63979;55.644;37.734;2023-12-22T22:06:32;15.95;;;7.95;;
75408;SDS011;63979;55.644;37.734;2023-12-22T22:11:33;12.88;;;6.50;;
75408;SDS011;63979;55.644;37.734;2023-12-22T22:16:34;16.27;;;9.20;;
75408;SDS011;63979;55.644;37.734;2023-12-22T22:21:38;14.05;;;8.15;;
75408;SDS011;63979;55.644;37.734;2023-12-22T22:26:39;15.43;;;7.95;;
75408;SDS011;63979;55.644;37.734;2023-12-22T22:31:41;18.50;;;8.35;;
75408;SDS011;63979;55.644;37.734;2023-12-22T22:36:42;20.83;;;8.48;;
75408;SDS011;63979;55.644;37.734;2023-12-22T22:41:43;9.60;;;6.32;;
75408;SDS011;63979;55.644;37.734;2023-12-22T22:46:44;19.88;;;9.25;;
75408;SDS011;63979;55.644;37.734;2023-12-22T22:51:44;17.60;;;9.23;;
75408;SDS011;63979;55.644;37.734;2023-12-22T22:56:45;11.88;;;6.05;;
75408;SDS011;63979;55.644;37.734;2023-12-22T23:01:46;10.98;;;6.97;;
75408;SDS011;63979;55.644;37.734;2023-12-22T23:06:47;10.23;;;7.10;;
75408;SDS011;63979;55.644;37.734;2023-12-22T23:11:49;14.65;;;8.70;;
75408;SDS011;63979;55.644;37.734;2023-12-22T23:16:49;15.63;;;7.55;;
75408;SDS011;63979;55.644;37.734;2023-12-22T23:21:50;15.90;;;7.10;;
75408;SDS011;63979;55.644;37.734;2023-12-22T23:26:51;14.07;;;7.20;;
75408;SDS011;63979;55.644;37.734;2023-12-22T23:31:52;17.20;;;8.27;;
75408;SDS011;63979;55.644;37.734;2023-12-22T23:36:53;15.43;;;7.40;;
75408;SDS011;63979;55.644;37.734;2023-12-22T23:41:54;15.25;;;8.20;;
75408;SDS011;63979;55.644;37.734;2023-12-22T23:46:56;16.67;;;8.30;;
75408;SDS011;63979;55.644;37.734;2023-12-22T23:51:56;22.98;;;8.80;;
75408;SDS011;63979;55.644;37.734;2023-12-22T23:56:57;18.17;;;8.93;;
